Terminal Aerodrome Forecast
Issued by NWS

Home | Current Version | Previous Version | Text Only | Print | Product List | Glossary On
Versions: 1 2 3 4 5 6 7 8 9 10 11 12 13 14 15 16 17 18 19 20 21 22 23 24 25 26
000
FTAK31 PAJN 211728
TAFAPG
TAF
PAPG 211728Z 2118/2218 21003KT P6SM VCSH BKN010 BKN035
     FM212100 VRB03KT P6SM FEW015 BKN035
     FM221400 12007KT 3SM -SHSN BR OVC020
     FM221600 12007KT 2SM -SHSN BR OVC015
      AMD LTD TO CLD VIS AND WIND 2206/2215=

USA.gov is the U.S. government's official web portal to all federal, state and local government web resources and services.